Search for airport 
image banner adimage banner adimage banner ad
image banner ad

SUCR - La Carolina / Ad Mil

Located in , Uruguay

ICAO - , IATA -

Data provided by Airmate  

General information

Coordinates: S32°52'8" W56°14'56"
Elevation is feet MSL.
 
View others Airports in Tacuarembo

Operational data

Special qualification required
Current time UTC:
Current local time:
METAR: SUDU 082200Z 07007KT CAVOK 13/08 Q1025
TAF: TAF SUDU 082330Z 0800/0824 09005KT CAVOK TX19/0818Z TN05/0810Z TEMPO 0803/0810 3000 BR NSC TEMPO 0804/0811 0800 BCFG SCT008
View NOTAMs / SUP AIP / TFR affecting this airport [VIEW]
Communications frequencies: [VIEW]

Runways:

Airport contact information

Address: Uruguay

Satellite view of SUCR